createdAt,value
2019-05-17T00:02:00.568Z,38.17
2019-05-17T00:04:37.233Z,38.65
2019-05-17T00:07:13.861Z,37.48
2019-05-17T00:09:50.677Z,33.70
2019-05-17T00:12:28.004Z,35.30
2019-05-17T00:15:04.410Z,35.75
2019-05-17T00:17:40.984Z,33.92
2019-05-17T00:20:17.923Z,32.73
2019-05-17T00:22:57.230Z,32.90
2019-05-17T00:25:32.586Z,32.13
2019-05-17T00:28:09.525Z,32.55
2019-05-17T00:30:47.139Z,33.18
2019-05-17T00:33:23.647Z,32.48
2019-05-17T00:36:01.172Z,30.52
2019-05-17T00:38:48.341Z,32.80
2019-05-17T00:41:17.648Z,31.65
2019-05-17T00:43:53.746Z,31.40
2019-05-17T00:46:30.371Z,31.23
2019-05-17T00:49:08.267Z,29.70
2019-05-17T00:51:47.260Z,30.17
2019-05-17T00:54:22.617Z,30.77
2019-05-17T00:56:59.588Z,29.67
2019-05-17T00:59:36.917Z,30.30
2019-05-17T01:02:16.148Z,29.30
2019-05-17T01:04:51.606Z,28.75
2019-05-17T01:07:28.407Z,28.70
2019-05-17T01:10:07.012Z,31.90
2019-05-17T01:12:43.779Z,27.93
2019-05-17T01:15:20.700Z,27.75
2019-05-17T01:17:57.400Z,28.38
2019-05-17T01:20:36.478Z,25.88
2019-05-17T01:23:12.517Z,26.60
2019-05-17T01:25:49.049Z,26.37
2019-05-17T01:28:26.946Z,27.45
2019-05-17T01:31:03.881Z,26.23
2019-05-17T01:33:40.826Z,25.68
2019-05-17T01:36:17.489Z,25.02
2019-05-17T01:38:54.265Z,25.27
2019-05-17T01:41:30.763Z,24.02
2019-05-17T01:44:07.739Z,24.02
2019-05-17T01:46:46.312Z,23.52
2019-05-17T01:49:22.067Z,23.83
2019-05-17T01:51:58.583Z,24.52
2019-05-17T01:54:36.289Z,23.98
2019-05-17T01:57:13.593Z,23.55
2019-05-17T01:59:50.049Z,21.82
2019-05-17T02:02:47.127Z,23.77
2019-05-17T02:05:23.683Z,22.73
2019-05-17T02:08:00.110Z,21.77
2019-05-17T02:10:37.548Z,22.30
2019-05-17T02:13:16.599Z,23.83
2019-05-17T02:15:53.299Z,22.32
2019-05-17T02:18:29.616Z,22.22
2019-05-17T02:21:06.765Z,21.90
2019-05-17T02:23:43.444Z,22.80
2019-05-17T02:26:19.915Z,23.18
2019-05-17T02:28:56.615Z,22.07
2019-05-17T02:31:34.570Z,21.40
2019-05-17T02:34:13.913Z,23.60
2019-05-17T02:36:53.185Z,22.42
2019-05-17T02:39:28.008Z,22.00
2019-05-17T02:42:04.215Z,22.25
2019-05-17T02:44:43.604Z,20.62
2019-05-17T02:47:19.006Z,21.97
2019-05-17T02:49:55.080Z,21.27
2019-05-17T02:52:32.866Z,21.62
2019-05-17T02:55:12.466Z,21.17
2019-05-17T02:57:47.363Z,20.80
2019-05-17T03:00:24.254Z,21.07
2019-05-17T03:03:03.203Z,21.23
2019-05-17T03:05:37.894Z,19.52
2019-05-17T03:08:14.872Z,20.82
2019-05-17T03:10:53.490Z,21.48
2019-05-17T03:13:29.127Z,20.77
2019-05-17T03:16:05.699Z,20.08
2019-05-17T03:18:43.844Z,20.85
2019-05-17T03:21:22.762Z,19.75
2019-05-17T03:23:58.185Z,21.05
2019-05-17T03:26:34.432Z,20.60
2019-05-17T03:29:13.384Z,19.85
2019-05-17T03:31:53.598Z,19.92
2019-05-17T03:34:27.481Z,20.10
2019-05-17T03:37:06.221Z,19.90
2019-05-17T03:39:42.725Z,19.92
2019-05-17T03:42:22.619Z,20.30
2019-05-17T03:45:02.620Z,20.60
2019-05-17T03:47:37.547Z,20.92
2019-05-17T03:50:14.475Z,19.55
2019-05-17T03:52:53.535Z,19.92
2019-05-17T03:55:32.765Z,19.87
2019-05-17T03:58:06.725Z,20.12
2019-05-17T04:00:43.418Z,19.55
2019-05-17T04:03:22.939Z,19.45
2019-05-17T04:05:58.154Z,20.52
2019-05-17T04:08:35.190Z,19.57
2019-05-17T04:11:22.104Z,19.12
2019-05-17T04:13:49.363Z,19.10
2019-05-17T04:16:25.866Z,18.87
2019-05-17T04:19:03.232Z,18.95
2019-05-17T04:21:42.711Z,21.10
2019-05-17T04:24:17.930Z,20.60
2019-05-17T04:26:54.181Z,19.75
2019-05-17T04:29:33.195Z,18.95
2019-05-17T04:32:09.207Z,18.30
2019-05-17T04:34:46.106Z,18.05
2019-05-17T04:37:22.889Z,19.30
2019-05-17T04:40:03.123Z,18.77
2019-05-17T04:42:37.569Z,18.20
2019-05-17T04:45:14.343Z,18.17
2019-05-17T04:47:52.847Z,17.85
2019-05-17T04:50:28.208Z,18.60
2019-05-17T04:53:04.655Z,18.70
2019-05-17T04:55:43.080Z,17.73
2019-05-17T04:58:19.151Z,16.67
2019-05-17T05:00:55.839Z,16.30
2019-05-17T05:03:32.933Z,16.20
2019-05-17T05:06:13.057Z,16.70
2019-05-17T05:08:47.500Z,17.85
2019-05-17T05:11:24.328Z,16.93
2019-05-17T05:14:02.845Z,17.30
2019-05-17T05:16:38.980Z,17.55
2019-05-17T05:19:15.338Z,17.60
2019-05-17T05:21:52.089Z,17.48
2019-05-17T05:24:31.428Z,17.90
2019-05-17T05:27:07.250Z,17.10
2019-05-17T05:29:43.724Z,17.55
2019-05-17T05:32:22.017Z,18.00
2019-05-17T05:34:58.168Z,16.52
2019-05-17T05:37:34.579Z,17.15
2019-05-17T05:40:12.625Z,17.10
2019-05-17T05:42:51.564Z,16.77
2019-05-17T05:45:27.704Z,16.82
2019-05-17T05:48:04.637Z,18.00
2019-05-17T05:50:43.107Z,17.37
2019-05-17T05:53:21.635Z,17.62
2019-05-17T05:55:56.522Z,17.52
2019-05-17T05:58:32.891Z,17.25
2019-05-17T06:01:09.363Z,16.45
2019-05-17T06:03:45.992Z,16.65
2019-05-17T06:06:23.676Z,16.62
2019-05-17T06:08:59.860Z,17.65
2019-05-17T06:11:36.532Z,16.27
2019-05-17T06:14:13.082Z,16.27
2019-05-17T06:16:51.840Z,15.83
2019-05-17T06:19:27.433Z,16.37
2019-05-17T06:22:03.700Z,16.25
2019-05-17T06:24:42.337Z,16.95
2019-05-17T06:27:17.992Z,16.00
2019-05-17T06:29:54.470Z,17.00
2019-05-17T06:32:31.674Z,17.25
2019-05-17T06:35:08.720Z,16.77
2019-05-17T06:37:45.496Z,16.60
2019-05-17T06:40:21.751Z,15.70
2019-05-17T06:42:57.864Z,16.20
2019-05-17T06:45:35.706Z,14.98
2019-05-17T06:48:12.482Z,15.10
2019-05-17T06:50:49.017Z,14.98
2019-05-17T06:53:25.673Z,14.38
2019-05-17T06:56:02.862Z,13.62
2019-05-17T06:58:38.998Z,14.63
2019-05-17T07:01:15.319Z,14.50
2019-05-17T07:03:52.006Z,14.60
2019-05-17T07:06:29.598Z,14.93
2019-05-17T07:09:09.893Z,16.15
2019-05-17T07:11:45.435Z,15.43
2019-05-17T07:14:22.011Z,15.20
2019-05-17T07:16:59.609Z,15.78
2019-05-17T07:19:36.288Z,15.78
2019-05-17T07:22:12.928Z,15.30
2019-05-17T07:24:50.260Z,15.50
2019-05-17T07:27:40.655Z,15.43
2019-05-17T07:30:05.077Z,15.58
2019-05-17T07:32:41.912Z,15.55
2019-05-17T07:35:19.807Z,15.35
2019-05-17T07:37:56.476Z,14.98
2019-05-17T07:40:33.026Z,14.98
2019-05-17T07:43:14.309Z,15.60
2019-05-17T07:45:55.774Z,15.30
2019-05-17T07:48:32.355Z,15.53
2019-05-17T07:51:10.108Z,14.73
2019-05-17T07:53:49.306Z,15.63
2019-05-17T07:56:24.698Z,15.25
2019-05-17T07:59:00.928Z,16.10
2019-05-17T08:01:37.821Z,15.13
2019-05-17T08:04:14.306Z,15.15
2019-05-17T08:06:50.943Z,14.70
2019-05-17T08:09:30.040Z,15.53
2019-05-17T08:12:06.243Z,15.48
2019-05-17T08:14:45.300Z,16.65
2019-05-17T08:17:22.115Z,16.70
2019-05-17T08:20:00.646Z,16.60
2019-05-17T08:22:39.557Z,17.65
2019-05-17T08:25:15.380Z,17.07
2019-05-17T08:27:52.181Z,17.57
2019-05-17T08:30:30.304Z,16.37
2019-05-17T08:33:10.453Z,17.15
2019-05-17T08:35:45.411Z,17.15
2019-05-17T08:38:21.864Z,16.73
2019-05-17T08:41:00.585Z,16.27
2019-05-17T08:43:45.816Z,17.10
2019-05-17T08:46:20.722Z,17.12
2019-05-17T08:48:57.093Z,17.62
2019-05-17T08:51:33.846Z,17.07
2019-05-17T08:54:10.541Z,18.27
2019-05-17T08:56:47.075Z,17.85
2019-05-17T08:59:23.849Z,17.50
2019-05-17T09:02:00.513Z,16.93
2019-05-17T09:04:37.147Z,18.65
2019-05-17T09:07:16.393Z,17.95
2019-05-17T09:09:52.850Z,18.12
2019-05-17T09:12:30.042Z,17.92
2019-05-17T09:15:06.623Z,19.25
2019-05-17T09:17:43.439Z,17.25
2019-05-17T09:20:20.493Z,18.20
2019-05-17T09:22:59.911Z,18.67
2019-05-17T09:25:35.512Z,16.23
2019-05-17T09:28:11.658Z,16.65
2019-05-17T09:30:50.536Z,17.65
2019-05-17T09:33:26.389Z,17.37
2019-05-17T09:36:03.229Z,18.32
2019-05-17T09:38:40.430Z,17.60
2019-05-17T09:41:17.122Z,18.75
2019-05-17T09:43:53.899Z,23.40
2019-05-17T09:46:30.462Z,22.90
2019-05-17T09:49:10.451Z,22.93
2019-05-17T09:51:46.314Z,21.45
2019-05-17T09:54:38.231Z,19.92
2019-05-17T09:57:01.101Z,20.52
2019-05-17T09:59:40.325Z,20.23
2019-05-17T10:02:15.788Z,20.50
2019-05-17T10:04:52.437Z,18.75
2019-05-17T10:07:29.816Z,18.70
2019-05-17T10:10:06.341Z,19.27
2019-05-17T10:12:44.029Z,19.23
2019-05-17T10:15:20.841Z,19.30
2019-05-17T10:18:00.403Z,19.40
2019-05-17T10:20:36.206Z,19.17
2019-05-17T10:23:12.754Z,20.45
2019-05-17T10:25:49.654Z,21.85
2019-05-17T10:28:26.429Z,20.60
2019-05-17T10:31:02.994Z,19.25
2019-05-17T10:33:40.102Z,20.02
2019-05-17T10:36:17.053Z,21.35
2019-05-17T10:38:53.528Z,21.75
2019-05-17T10:41:30.228Z,23.52
2019-05-17T10:44:06.678Z,23.22
2019-05-17T10:46:43.102Z,19.25
2019-05-17T10:49:20.263Z,18.23
2019-05-17T10:51:56.964Z,18.57
2019-05-17T10:54:33.759Z,17.80
2019-05-17T10:57:10.435Z,17.60
2019-05-17T10:59:49.757Z,17.77
2019-05-17T11:02:25.280Z,18.35
2019-05-17T11:05:01.729Z,18.95
2019-05-17T11:07:38.859Z,18.95
2019-05-17T11:10:16.091Z,18.98
2019-05-17T11:12:52.852Z,17.27
2019-05-17T11:15:29.199Z,16.75
2019-05-17T11:18:05.863Z,16.60
2019-05-17T11:20:43.107Z,15.95
2019-05-17T11:23:19.731Z,17.05
2019-05-17T11:25:56.751Z,16.82
2019-05-17T11:28:33.295Z,15.40
2019-05-17T11:31:10.153Z,16.23
2019-05-17T11:33:46.890Z,16.67
2019-05-17T11:36:23.223Z,16.00
2019-05-17T11:39:00.129Z,16.27
2019-05-17T11:41:36.500Z,16.70
2019-05-17T11:44:13.019Z,16.90
2019-05-17T11:46:49.664Z,16.85
2019-05-17T11:49:26.027Z,17.05
2019-05-17T11:52:03.670Z,16.25
2019-05-17T11:54:40.336Z,17.32
2019-05-17T11:57:17.109Z,18.05
2019-05-17T11:59:53.910Z,18.60
2019-05-17T12:02:30.531Z,18.62
2019-05-17T12:05:07.272Z,17.75
2019-05-17T12:07:43.593Z,18.20
2019-05-17T12:10:20.858Z,18.98
2019-05-17T12:12:57.271Z,17.80
2019-05-17T12:15:44.345Z,19.90
2019-05-17T12:18:11.667Z,19.50
2019-05-17T12:20:48.319Z,20.35
2019-05-17T12:23:24.652Z,21.10
2019-05-17T12:26:01.244Z,20.88
2019-05-17T12:28:37.917Z,21.48
2019-05-17T12:31:14.488Z,19.87
2019-05-17T12:33:51.207Z,20.88
2019-05-17T12:36:28.265Z,21.25
2019-05-17T12:39:04.618Z,19.30
2019-05-17T12:41:41.419Z,20.32
2019-05-17T12:44:17.995Z,20.90
2019-05-17T12:46:54.924Z,21.42
2019-05-17T12:49:31.419Z,21.35
2019-05-17T12:52:08.116Z,21.45
2019-05-17T12:54:45.059Z,21.42
2019-05-17T12:57:39.179Z,21.68
2019-05-17T13:00:17.088Z,21.42
2019-05-17T13:02:53.565Z,21.30
2019-05-17T13:05:29.846Z,22.07
2019-05-17T13:08:06.808Z,22.95
2019-05-17T13:10:43.570Z,22.65
2019-05-17T13:13:20.443Z,24.27
2019-05-17T13:15:57.375Z,21.37
2019-05-17T13:18:35.299Z,21.45
2019-05-17T13:21:11.832Z,22.07
2019-05-17T13:23:48.435Z,20.70
2019-05-17T13:26:25.140Z,22.77
2019-05-17T13:29:01.738Z,22.00
2019-05-17T13:31:38.719Z,22.98
2019-05-17T13:34:15.183Z,23.65
2019-05-17T13:36:51.872Z,24.00
2019-05-17T13:39:28.322Z,23.07
2019-05-17T13:42:05.097Z,23.55
2019-05-17T13:44:41.650Z,24.35
2019-05-17T13:47:17.668Z,23.22
2019-05-17T13:49:53.563Z,23.85
2019-05-17T13:52:29.754Z,26.73
2019-05-17T13:55:06.009Z,27.98
2019-05-17T13:57:42.495Z,27.95
2019-05-17T14:00:19.140Z,26.37
2019-05-17T14:02:55.569Z,25.25
2019-05-17T14:05:31.545Z,25.45
2019-05-17T14:08:07.990Z,25.35
2019-05-17T14:10:44.232Z,26.60
2019-05-17T14:13:20.740Z,26.75
2019-05-17T14:15:58.003Z,26.20
2019-05-17T14:18:34.901Z,27.50
2019-05-17T14:21:11.850Z,27.13
2019-05-17T14:23:49.362Z,27.27
2019-05-17T14:26:25.756Z,27.50
2019-05-17T14:29:02.357Z,27.77
2019-05-17T14:31:38.388Z,27.73
2019-05-17T14:34:15.019Z,26.87
2019-05-17T14:36:51.530Z,27.67
2019-05-17T14:39:28.245Z,27.27
2019-05-17T14:42:04.167Z,27.32
2019-05-17T14:44:40.763Z,26.87
2019-05-17T14:47:17.354Z,26.45
2019-05-17T14:49:54.262Z,24.05
2019-05-17T14:52:30.913Z,24.43
2019-05-17T14:55:07.642Z,25.92
2019-05-17T14:57:44.263Z,27.60
2019-05-17T15:00:21.077Z,26.27
2019-05-17T15:02:57.746Z,26.17
2019-05-17T15:05:33.771Z,26.00
2019-05-17T15:08:10.284Z,26.27
2019-05-17T15:10:47.566Z,25.50
2019-05-17T15:13:24.362Z,26.85
2019-05-17T15:16:00.890Z,26.00
2019-05-17T15:18:37.834Z,27.80
2019-05-17T15:21:14.736Z,27.50
2019-05-17T15:23:51.132Z,24.10
2019-05-17T15:26:28.671Z,25.82
2019-05-17T15:29:04.814Z,25.12
2019-05-17T15:31:41.535Z,25.30
2019-05-17T15:34:18.072Z,26.27
2019-05-17T15:36:55.102Z,25.23
2019-05-17T15:39:31.652Z,26.02
2019-05-17T15:42:08.463Z,24.90
2019-05-17T15:44:45.079Z,23.35
2019-05-17T15:47:21.622Z,25.00
2019-05-17T15:49:57.859Z,23.77
2019-05-17T15:52:34.794Z,23.90
2019-05-17T15:55:12.113Z,25.02
2019-05-17T15:57:48.470Z,24.20
2019-05-17T16:00:25.860Z,24.60
2019-05-17T16:03:02.223Z,25.00
2019-05-17T16:05:38.881Z,24.18
2019-05-17T16:08:15.779Z,24.23
2019-05-17T16:10:52.156Z,24.90
2019-05-17T16:13:28.648Z,25.97
2019-05-17T16:16:05.143Z,24.57
2019-05-17T16:18:41.818Z,22.80
2019-05-17T16:21:18.697Z,23.10
2019-05-17T16:23:55.291Z,24.40
2019-05-17T16:26:32.179Z,25.25
2019-05-17T16:29:09.060Z,25.65
2019-05-17T16:31:45.732Z,24.23
2019-05-17T16:34:22.228Z,22.17
2019-05-17T16:36:58.720Z,24.20
2019-05-17T16:39:35.134Z,22.65
2019-05-17T16:42:11.795Z,24.12
2019-05-17T16:44:48.291Z,25.43
2019-05-17T16:47:24.865Z,23.62
2019-05-17T16:50:02.546Z,25.02
2019-05-17T16:52:39.508Z,24.12
2019-05-17T16:55:16.815Z,25.48
2019-05-17T16:57:53.938Z,24.92
2019-05-17T17:00:35.993Z,24.10
2019-05-17T17:03:12.821Z,24.50
2019-05-17T17:05:49.320Z,26.27
2019-05-17T17:08:26.053Z,24.92
2019-05-17T17:11:02.881Z,25.52
2019-05-17T17:13:39.429Z,24.18
2019-05-17T17:16:16.350Z,24.67
2019-05-17T17:18:53.088Z,24.60
2019-05-17T17:21:29.758Z,24.40
2019-05-17T17:24:06.843Z,24.25
2019-05-17T17:26:43.502Z,23.87
2019-05-17T17:29:20.005Z,24.98
2019-05-17T17:31:56.719Z,22.67
2019-05-17T17:34:33.373Z,24.27
2019-05-17T17:37:09.940Z,24.30
2019-05-17T17:39:46.542Z,23.77
2019-05-17T17:42:23.430Z,23.75
2019-05-17T17:44:59.952Z,22.58
2019-05-17T17:47:36.608Z,22.98
2019-05-17T17:50:13.228Z,22.60
2019-05-17T17:52:52.037Z,24.67
2019-05-17T17:55:28.509Z,23.02
2019-05-17T17:58:05.326Z,22.67
2019-05-17T18:00:42.198Z,22.10
2019-05-17T18:03:20.031Z,23.62
2019-05-17T18:05:56.721Z,23.60
2019-05-17T18:08:34.726Z,22.85
2019-05-17T18:11:11.405Z,22.58
2019-05-17T18:13:48.115Z,22.32
2019-05-17T18:16:24.769Z,23.10
2019-05-17T18:19:01.621Z,22.82
2019-05-17T18:21:38.082Z,24.00
2019-05-17T18:24:14.705Z,23.32
2019-05-17T18:26:51.202Z,23.07
2019-05-17T18:29:28.121Z,22.45
2019-05-17T18:32:05.166Z,23.38
2019-05-17T18:34:42.969Z,22.90
2019-05-17T18:37:19.596Z,22.10
2019-05-17T18:39:55.952Z,22.37
2019-05-17T18:42:32.724Z,22.70
2019-05-17T18:45:09.783Z,22.02
2019-05-17T18:47:46.310Z,21.97
2019-05-17T18:50:22.695Z,22.17
2019-05-17T18:52:59.658Z,22.22
2019-05-17T18:55:36.481Z,22.25
2019-05-17T18:58:13.299Z,23.02
2019-05-17T19:00:50.735Z,22.70
2019-05-17T19:03:26.787Z,24.02
2019-05-17T19:06:03.381Z,22.37
2019-05-17T19:08:39.976Z,23.10
2019-05-17T19:11:16.344Z,23.60
2019-05-17T19:13:52.880Z,24.45
2019-05-17T19:16:29.403Z,23.50
2019-05-17T19:19:05.704Z,23.22
2019-05-17T19:21:42.366Z,23.83
2019-05-17T19:24:18.984Z,22.62
2019-05-17T19:26:55.327Z,22.77
2019-05-17T19:29:31.899Z,22.67
2019-05-17T19:32:08.336Z,22.93
2019-05-17T19:34:44.734Z,22.70
2019-05-17T19:37:21.174Z,21.48
2019-05-17T19:39:57.652Z,22.77
2019-05-17T19:42:34.545Z,22.35
2019-05-17T19:45:12.061Z,23.60
2019-05-17T19:47:48.516Z,22.52
2019-05-17T19:50:25.611Z,22.87
2019-05-17T19:53:02.406Z,22.90
2019-05-17T19:55:38.840Z,23.00
2019-05-17T19:58:15.172Z,22.67
2019-05-17T20:00:51.837Z,24.12
2019-05-17T20:03:29.838Z,23.07
2019-05-17T20:06:06.452Z,23.70
2019-05-17T20:08:43.223Z,22.50
2019-05-17T20:11:33.398Z,22.93
2019-05-17T20:13:57.744Z,22.35
2019-05-17T20:16:34.392Z,22.20
2019-05-17T20:19:10.869Z,22.90
2019-05-17T20:21:47.446Z,22.25
2019-05-17T20:24:24.241Z,22.75
2019-05-17T20:27:00.883Z,22.73
2019-05-17T20:29:37.310Z,22.60
2019-05-17T20:32:13.881Z,22.67
2019-05-17T20:34:50.163Z,22.82
2019-05-17T20:37:26.608Z,24.32
2019-05-17T20:40:04.994Z,22.98
2019-05-17T20:42:40.926Z,22.93
2019-05-17T20:45:32.025Z,22.95
2019-05-17T20:47:56.538Z,23.70
2019-05-17T20:50:33.166Z,22.80
2019-05-17T20:53:18.468Z,22.32
2019-05-17T20:55:48.695Z,23.50
2019-05-17T20:58:25.108Z,23.32
2019-05-17T21:01:02.069Z,24.55
2019-05-17T21:03:38.753Z,24.47
2019-05-17T21:06:15.135Z,23.45
2019-05-17T21:08:51.749Z,26.27
2019-05-17T21:11:28.120Z,25.45
2019-05-17T21:14:04.500Z,25.82
2019-05-17T21:16:40.736Z,27.85
2019-05-17T21:19:18.565Z,27.25
2019-05-17T21:21:54.963Z,27.22
2019-05-17T21:24:31.455Z,28.40
2019-05-17T21:27:08.258Z,27.40
2019-05-17T21:29:44.613Z,28.30
2019-05-17T21:32:21.306Z,28.65
2019-05-17T21:34:57.762Z,28.90
2019-05-17T21:37:34.284Z,28.32
2019-05-17T21:40:11.480Z,27.93
2019-05-17T21:42:48.506Z,28.10
2019-05-17T21:45:25.287Z,26.75
2019-05-17T21:48:02.230Z,26.80
2019-05-17T21:50:38.401Z,28.00
2019-05-17T21:53:14.843Z,27.50
2019-05-17T21:55:51.547Z,28.35
2019-05-17T21:58:28.156Z,27.55
2019-05-17T22:01:22.882Z,27.73
2019-05-17T22:03:59.539Z,29.52
2019-05-17T22:06:37.175Z,27.15
2019-05-17T22:09:15.630Z,29.10
2019-05-17T22:11:54.371Z,27.85
2019-05-17T22:14:30.713Z,29.42
2019-05-17T22:17:07.223Z,28.77
2019-05-17T22:19:44.059Z,29.02
2019-05-17T22:22:20.740Z,29.30
2019-05-17T22:24:57.713Z,30.15
2019-05-17T22:27:33.879Z,33.67
2019-05-17T22:30:10.780Z,34.73
2019-05-17T22:32:47.456Z,39.23
2019-05-17T22:35:24.224Z,37.45
2019-05-17T22:38:00.816Z,38.42
2019-05-17T22:40:37.448Z,37.67
2019-05-17T22:43:15.170Z,36.48
2019-05-17T22:45:51.451Z,34.15
2019-05-17T22:48:28.290Z,34.92
2019-05-17T22:51:04.743Z,32.17
2019-05-17T22:53:41.702Z,33.35
2019-05-17T22:56:18.060Z,31.02
2019-05-17T22:58:54.828Z,32.48
2019-05-17T23:01:33.008Z,32.10
2019-05-17T23:04:09.498Z,31.90
2019-05-17T23:06:46.347Z,30.57
2019-05-17T23:09:23.600Z,32.20
2019-05-17T23:12:00.222Z,31.75
2019-05-17T23:14:37.156Z,33.33
2019-05-17T23:17:13.613Z,32.15
2019-05-17T23:19:50.435Z,32.58
2019-05-17T23:22:27.335Z,33.45
2019-05-17T23:25:03.930Z,32.55
2019-05-17T23:27:40.805Z,32.53
2019-05-17T23:30:17.698Z,32.40
2019-05-17T23:32:54.453Z,32.00
2019-05-17T23:35:31.048Z,31.95
2019-05-17T23:38:07.946Z,31.30
2019-05-17T23:40:44.359Z,31.17
2019-05-17T23:43:21.268Z,30.85
2019-05-17T23:45:58.028Z,30.35
2019-05-17T23:48:34.560Z,30.52
2019-05-17T23:51:11.466Z,30.57
2019-05-17T23:53:48.162Z,30.60
2019-05-17T23:56:25.059Z,30.35
2019-05-17T23:59:01.342Z,29.45
